• Join FlightAware (Why Join?)
  • Login
  • US Flag 
05:21AM EDT


 

Airport Tracker/Info


-or-


 

Live Flight TrackerFlight Track Log ✈ N1250V ✈ 09-Aug-2013 ✈ KLUK - KSLN

Flight Track Log - Related Links

Times and Time Zones

All times are in EDT time to prevent confusion due to time zone crossing. See the N1250V flight status page for this flight to view local times or setup timezone preferences in your user account.

Time Position Orientation Groundspeed Altitude Reporting Facility
EDT Latitude Longitude Course Direction KTS MPH feet Rate Location/Type
10:03AM 39.0833 -84.4167 195° South 152 175 1,200  Level Cincinnati TRACON
10:03AM 39.0333 -84.4333 195° South 204 235 2,700 1,920 Climbing Cincinnati TRACON
10:04AM 38.9833 -84.4667 207° Southwest 200 230 4,700 1,920 Climbing Cincinnati TRACON
10:05AM 38.9333 -84.5000 207° Southwest 215 247 6,400 1,800 Climbing Cincinnati TRACON
10:06AM 38.9500 -84.5667 288° West 211 243 8,300 1,800 Climbing Cincinnati TRACON
10:07AM 38.9661 -84.5958 305° West 213 245 9,200 1,800 Climbing Indianapolis Center
10:08AM 38.9936 -84.6592 299° West 204 235 11,100 1,560 Climbing Indianapolis Center
10:09AM 39.0222 -84.7219 300° West 203 234 12,500 900 Climbing Indianapolis Center
10:10AM 39.0422 -84.8000 288° West 228 262 13,000 480 Climbing Indianapolis Center
10:11AM 39.0667 -84.8900 289° West 260 299 13,600 1,020 Climbing Indianapolis Center
10:12AM 39.0956 -84.9919 290° West 258 297 15,200 1,200 Climbing Indianapolis Center
10:13AM 39.1197 -85.0733 291° West 248 285 16,200 1,020 Climbing Indianapolis Center
10:14AM 39.1422 -85.1561 289° West 247 284 17,400 960 Climbing Indianapolis Center
10:15AM 39.1678 -85.2375 292° West 245 282 18,300 840 Climbing Indianapolis Center
10:16AM 39.1897 -85.3231 288° West 250 288 19,200 960 Climbing Indianapolis Center
10:17AM 39.2133 -85.4061 290° West 249 287 20,300 1,020 Climbing Indianapolis Center
10:18AM 39.2411 -85.5094 289° West 255 293 21,400 900 Climbing Indianapolis Center
10:19AM 39.2644 -85.5961 289° West 256 295 22,200 720 Climbing Indianapolis Center
10:20AM 39.2886 -85.6853 289° West 263 303 23,000 720 Climbing Indianapolis Center
10:21AM 39.3139 -85.7747 290° West 265 305 23,700 720 Climbing Indianapolis Center
10:22AM 39.3156 -85.8683 271° West 261 300 24,500 720 Climbing Indianapolis Center
10:23AM 39.3192 -85.9631 273° West 264 304 25,300 900 Climbing Indianapolis Center
10:24AM 39.3211 -86.0744 271° West 259 298 26,400 960 Climbing Indianapolis Center
10:25AM 39.3250 -86.1647 273° West 255 293 27,400 840 Climbing Indianapolis Center
10:26AM 39.3258 -86.2542 271° West 250 288 28,200 720 Climbing Indianapolis Center
10:28AM 39.3317 -86.3417 275° West 245 282 28,900 660 Climbing Indianapolis Center
10:29AM 39.3331 -86.4300 271° West 245 282 29,600 660 Climbing Indianapolis Center
10:30AM 39.3356 -86.5169 272° West 243 280 30,300 720 Climbing Indianapolis Center
10:31AM 39.3386 -86.6017 273° West 239 275 31,100 600 Climbing Indianapolis Center
10:32AM 39.3400 -86.6872 271° West 238 274 31,600 420 Climbing Indianapolis Center
10:33AM 39.3436 -86.7919 273° West 243 280 32,000 180 Climbing Indianapolis Center
10:34AM 39.3461 -86.8856 272° West 255 293 32,000 60 Level Indianapolis Center
10:35AM 39.3492 -86.9839 272° West 272 313 32,200 180 Climbing Indianapolis Center
10:36AM 39.3517 -87.0839 272° West 277 319 32,400 480 Climbing Indianapolis Center
10:37AM 39.3511 -87.1786 270° West 269 310 33,300 600 Climbing Indianapolis Center
10:38AM 39.3494 -87.2661 269° West 249 287 33,700 240 Climbing Indianapolis Center
10:39AM 39.3500 -87.3572 270° West 252 290 33,900 120 Climbing Indianapolis Center
10:40AM 39.3481 -87.4681 269° West 257 296 34,000  Climbing Indianapolis Center
10:41AM 39.3206 -87.5592 249° West 270 311 34,000  Level Indianapolis Center
10:42AM 39.2969 -87.6381 249° West 274 315 34,000  Level Indianapolis Center
10:43AM 39.2672 -87.7536 252° West 282 325 34,000  Level Indianapolis Center
10:44AM 39.2603 -87.8525 265° West 285 328 34,000  Level Indianapolis Center
10:45AM 39.2575 -87.9564 268° West 289 333 34,000  Level Indianapolis Center
10:46AM 39.2578 -88.0589 270° West 287 330 34,000  Level Indianapolis Center
10:47AM 39.2578 -88.1636 270° West 289 333 34,000  Level Kansas City Center
10:48AM 39.2564 -88.2681 269° West 293 337 34,000  Level Indianapolis Center
10:49AM 39.2556 -88.3728 269° West 292 336 34,000  Level Indianapolis Center
10:50AM 39.2539 -88.4986 269° West 291 335 34,000  Level Kansas City Center
10:51AM 39.2517 -88.6025 268° West 290 334 34,000  Level Kansas City Center
10:52AM 39.2506 -88.7097 269° West 292 336 34,000  Level Kansas City Center
10:53AM 39.2497 -88.8131 269° West 289 333 34,000  Level Kansas City Center
10:54AM 39.2483 -88.9169 269° West 290 334 34,000  Level Kansas City Center
10:55AM 39.2483 -89.0211 270° West 291 335 34,000  Level Kansas City Center
10:56AM 39.2453 -89.1253 268° West 291 335 34,000  Level Kansas City Center
10:57AM 39.2439 -89.2306 269° West 294 338 34,000  Level Kansas City Center
10:58AM 39.2414 -89.3550 269° West 292 336 34,000  Level Kansas City Center
10:59AM 39.2392 -89.4597 268° West 292 336 34,000  Level Kansas City Center
11:00AM 39.2372 -89.5639 269° West 292 336 34,000  Level Kansas City Center
11:02AM 39.2353 -89.6683 269° West 294 338 34,000  Level Kansas City Center
11:03AM 39.2344 -89.7728 269° West 293 337 34,000  Level Kansas City Center
11:04AM 39.2314 -89.8994 268° West 294 338 34,000  Level Kansas City Center
11:05AM 39.2289 -90.0053 268° West 296 341 34,000  Level Kansas City Center
11:06AM 39.2250 -90.1111 267° West 297 342 34,000  Level Kansas City Center
11:07AM 39.2233 -90.2183 269° West 300 345 34,000  Level Kansas City Center
11:08AM 39.2206 -90.3253 268° West 300 345 34,000  Level Kansas City Center
11:09AM 39.2172 -90.4542 268° West 302 348 34,000  Level Kansas City Center
11:10AM 39.2139 -90.5597 268° West 299 344 34,000  Level Kansas City Center
11:11AM 39.2108 -90.6658 268° West 298 343 34,000  Level Kansas City Center
11:12AM 39.2083 -90.7692 268° West 293 337 34,000  Level Kansas City Center
11:13AM 39.2050 -90.8756 268° West 296 341 34,000  Level Kansas City Center
11:14AM 39.2022 -90.9819 268° West 298 343 34,000  Level Kansas City Center
11:15AM 39.1961 -91.1092 266° West 298 343 34,000  Level Kansas City Center
11:16AM 39.1922 -91.2150 267° West 298 343 34,000  Level Kansas City Center
11:17AM 39.1889 -91.3222 268° West 299 344 34,000  Level Kansas City Center
11:18AM 39.1856 -91.4294 268° West 300 345 34,000  Level Kansas City Center
11:19AM 39.1819 -91.5372 268° West 301 346 34,000  Level Kansas City Center
11:20AM 39.1764 -91.6644 267° West 299 344 34,000  Level Kansas City Center
11:21AM 39.1722 -91.7736 267° West 299 344 34,000  Level Kansas City Center
11:22AM 39.1672 -91.8822 267° West 301 346 34,000  Level Kansas City Center
11:23AM 39.1644 -91.9925 268° West 303 349 34,000  Level Kansas City Center
11:24AM 39.1583 -92.1008 266° West 304 350 34,000  Level Kansas City Center
11:25AM 39.1542 -92.2083 267° West 303 349 34,000  Level Kansas City Center
11:26AM 39.1478 -92.3392 266° West 303 349 34,000  Level Kansas City Center
11:27AM 39.1431 -92.4492 267° West 306 352 34,000  Level Kansas City Center
11:28AM 39.1381 -92.5617 267° West 311 358 34,000  Level Kansas City Center
11:29AM 39.1322 -92.6719 266° West 311 358 34,000  Level Kansas City Center
11:30AM 39.1275 -92.7869 267° West 313 360 34,000  Level Kansas City Center
11:31AM 39.1217 -92.8992 266° West 315 362 34,000  Level Kansas City Center
11:33AM 39.1158 -93.0100 266° West 313 360 34,000  Level Kansas City Center
11:34AM 39.1094 -93.1439 267° West 314 361 34,000  Level Kansas City Center
11:35AM 39.1036 -93.2553 266° West 314 361 34,000  Level Kansas City Center
11:36AM 39.0978 -93.3661 266° West 314 361 34,000  Level Kansas City Center
11:37AM 39.0922 -93.4761 266° West 312 359 34,000  Level Kansas City Center
11:38AM 39.0844 -93.6019 265° West 313 360 34,000  Level Kansas City Center
11:39AM 39.0783 -93.7183 266° West 313 360 34,000  Level Kansas City Center
11:40AM 39.0722 -93.8369 266° West 318 366 34,000  Level Kansas City Center
11:41AM 39.0656 -93.9458 266° West 318 366 34,000  Level Kansas City Center
11:42AM 39.0583 -94.0722 266° West 319 367 34,000  Level Kansas City Center
11:43AM 39.0519 -94.1811 266° West 318 366 34,000  Level Kansas City Center
11:44AM 39.0442 -94.3086 266° West 321 369 34,000  Level Kansas City Center
11:45AM 39.0378 -94.4164 266° West 317 365 34,000  Level Kansas City Center
11:46AM 39.0292 -94.5433 265° West 317 365 34,000  Level Kansas City Center
11:47AM 39.0219 -94.6511 265° West 317 365 34,000  Level Kansas City Center
11:48AM 39.0153 -94.7597 266° West 317 365 34,000  Level Kansas City Center
11:49AM 39.0069 -94.8850 265° West 315 362 34,000  Level Kansas City Center
11:50AM 38.9997 -94.9922 265° West 314 361 34,000 -420 Level Kansas City Center
11:51AM 38.9914 -95.1206 265° West 319 367 33,200 -1,020 Descending Kansas City Center
11:52AM 38.9825 -95.2406 265° West 347 399 31,900 -1,620 Descending Kansas City Center
11:53AM 38.9731 -95.3919 265° West 376 433 29,900 -1,560 Descending Kansas City Center
11:54AM 38.9633 -95.5244 265° West 385 443 28,700 -1,200 Descending Kansas City Center
11:55AM 38.9536 -95.6533 264° West 381 438 27,500 -1,320 Descending Kansas City Center
11:56AM 38.9431 -95.8058 265° West 382 440 26,000 -1,260 Descending Kansas City Center
11:57AM 38.9336 -95.9344 265° West 377 434 24,900 -1,500 Descending Kansas City Center
11:58AM 38.9231 -96.0744 265° West 355 409 22,900 -1,560 Descending Kansas City Center
11:59AM 38.9142 -96.1931 265° West 350 403 21,700 -1,260 Descending Kansas City Center
12:00PM 38.9025 -96.3294 264° West 345 397 20,400 -1,260 Descending Kansas City Center
12:01PM 38.8942 -96.4478 265° West 347 399 19,100 -1,260 Descending Kansas City Center
12:03PM 38.8839 -96.5625 263° West 335 386 17,800 -1,260 Descending Kansas City Center
12:04PM 38.8756 -96.6758 265° West 323 372 16,500 -1,440 Descending Kansas City Center
12:05PM 38.8650 -96.7972 264° West 301 346 14,900 -1,560 Descending Kansas City Center
12:06PM 38.8556 -96.9086 264° West 300 345 13,300 -1,560 Descending Kansas City Center
12:07PM 38.8461 -97.0214 264° West 303 349 11,700 -1,860 Descending Kansas City Center
12:08PM 38.8367 -97.1333 264° West 303 349 9,500 -2,100 Descending Kansas City Center
12:09PM 38.8267 -97.2467 264° West 306 352 7,400 -2,040 Descending Kansas City Center
12:10PM 38.8161 -97.3497 263° West 281 323 5,400 -2,040 Descending Kansas City Center
12:11PM 38.8075 -97.4453 263° West 261 300 3,200 -1,080 Descending Kansas City Center
12:12PM 38.8019 -97.5206 265° West 223 257 3,200 -180 Level Kansas City Center
12:13PM 38.7814 -97.5825 247° West 185 213 2,900 -480 Descending Kansas City Center
12:14PM 38.7492 -97.6183 221° Southwest 143 165 2,300 -540 Descending Kansas City Center
12:15PM 38.7639 -97.6478 303° West 126 145 1,900 -420 Descending Kansas City Center